Time;durP1;ratioP1;P1;durP2;ratioP2;P2;SDS_P1;SDS_P2;PMS_P1;PMS_P2;Temp;Humidity;BMP_temperature;BMP_pressure;BME280_temperature;BME280_humidity;BME280_pressure;Samples;Min_cycle;Max_cycle;Signal;HPM_P1;HPM_P2
2022/01/26 00:06:41;;;;;;;8.32;3.53;;;;;;;;;;5056626;28;20071;-80
2022/01/26 00:09:07;;;;;;;12.15;5.10;;;;;;;;;;5059341;28;20063;-79
2022/01/26 00:11:33;;;;;;;10.32;6.05;;;;;;;;;;5064284;28;20029;-79
2022/01/26 00:14:02;;;;;;;10.88;5.45;;;;;;;;;;5060255;28;20024;-80
2022/01/26 00:16:40;;;;;;;8.43;4.93;;;;;;;;;;5061530;28;20369;-81
2022/01/26 00:19:10;;;;;;;16.00;6.63;;;;;;;;;;5062598;28;20161;-80
2022/01/26 00:21:41;;;;;;;8.60;4.63;;;;;;;;;;5056102;28;20020;-80
2022/01/26 00:26:58;;;;;;;5.80;3.38;;;;;;;;;;5065585;28;20833;-80
2022/01/26 00:29:18;;;;;;;7.13;4.10;;;;;;;;;;5057400;28;20044;-83
2022/01/26 00:40:16;;;;;;;14.17;6.63;;;;;;;;;;5057413;28;20040;-80
2022/01/26 00:42:45;;;;;;;8.70;5.25;;;;;;;;;;5056202;28;20261;-82
2022/01/26 00:45:10;;;;;;;7.38;4.22;;;;;;;;;;5056630;28;20517;-81
2022/01/26 00:47:36;;;;;;;8.48;4.80;;;;;;;;;;5049050;28;20172;-80
2022/01/26 00:50:04;;;;;;;7.38;3.50;;;;;;;;;;5053049;28;20051;-79
2022/01/26 00:52:51;;;;;;;9.68;4.70;;;;;;;;;;5058636;28;20036;-81
2022/01/26 00:55:18;;;;;;;10.50;3.47;;;;;;;;;;5050072;28;20432;-79
2022/01/26 00:57:44;;;;;;;7.47;4.32;;;;;;;;;;5051916;28;20040;-80
2022/01/26 01:00:14;;;;;;;7.20;3.75;;;;;;;;;;5050900;28;20037;-80
2022/01/26 01:02:39;;;;;;;10.02;4.25;;;;;;;;;;5058895;28;20032;-81
2022/01/26 01:05:15;;;;;;;7.78;4.28;;;;;;;;;;5055120;28;20408;-79
2022/01/26 01:07:42;;;;;;;10.68;5.22;;;;;;;;;;5049045;28;20048;-80
2022/01/26 01:10:08;;;;;;;11.88;7.10;;;;;;;;;;5053653;28;20021;-80
2022/01/26 01:12:42;;;;;;;8.98;4.88;;;;;;;;;;5059325;28;20463;-80
2022/01/26 01:15:08;;;;;;;9.68;4.63;;;;;;;;;;5057019;28;20021;-79
2022/01/26 01:17:40;;;;;;;10.63;4.50;;;;;;;;;;5054230;28;20071;-83
2022/01/26 01:23:16;;;;;;;11.13;5.25;;;;;;;;;;5056335;28;20083;-78
2022/01/26 01:28:31;;;;;;;8.32;3.80;;;;;;;;;;5059115;28;20431;-81
2022/01/26 01:31:02;;;;;;;8.73;5.13;;;;;;;;;;5058332;28;20086;-81
2022/01/26 01:33:36;;;;;;;8.95;4.47;;;;;;;;;;5054206;28;20021;-79
2022/01/26 01:36:05;;;;;;;9.18;5.00;;;;;;;;;;5055650;28;20086;-80
2022/01/26 01:38:31;;;;;;;8.55;5.05;;;;;;;;;;5053437;28;20567;-80
2022/01/26 01:40:57;;;;;;;12.50;5.90;;;;;;;;;;5057624;28;20117;-78
2022/01/26 01:43:23;;;;;;;15.32;6.50;;;;;;;;;;5051248;28;20053;-80
2022/01/26 01:45:51;;;;;;;17.42;8.65;;;;;;;;;;5052765;28;20028;-79
2022/01/26 01:48:21;;;;;;;15.45;7.85;;;;;;;;;;5054251;28;20037;-80
2022/01/26 01:50:49;;;;;;;19.40;10.63;;;;;;;;;;5058372;28;20027;-80
2022/01/26 01:53:17;;;;;;;17.13;8.70;;;;;;;;;;5050845;28;20020;-79
2022/01/26 01:55:50;;;;;;;16.77;9.93;;;;;;;;;;5057575;28;20469;-82
2022/01/26 01:58:17;;;;;;;19.90;8.27;;;;;;;;;;5056554;28;20480;-82
2022/01/26 02:00:43;;;;;;;17.20;8.50;;;;;;;;;;5053696;28;20017;-82
2022/01/26 02:03:09;;;;;;;19.13;8.30;;;;;;;;;;5053795;28;20404;-81
2022/01/26 02:05:34;;;;;;;17.30;9.30;;;;;;;;;;5058237;28;20472;-82
2022/01/26 02:08:00;;;;;;;20.42;9.55;;;;;;;;;;5065564;28;20044;-81
2022/01/26 02:10:28;;;;;;;19.15;8.50;;;;;;;;;;5055598;28;20463;-79
2022/01/26 02:13:01;;;;;;;20.65;10.95;;;;;;;;;;5055007;28;20496;-82
2022/01/26 02:15:42;;;;;;;21.90;10.10;;;;;;;;;;5058767;28;20046;-79
2022/01/26 02:21:07;;;;;;;21.05;9.73;;;;;;;;;;5050174;28;20065;-81
2022/01/26 02:56:10;;;;;;;17.40;9.55;;;;;;;;;;5056302;28;20043;-81
2022/01/26 03:04:13;;;;;;;18.30;9.73;;;;;;;;;;5058806;28;20035;-82
2022/01/26 03:06:46;;;;;;;23.88;9.70;;;;;;;;;;5057064;28;20025;-82
2022/01/26 03:09:16;;;;;;;25.75;9.57;;;;;;;;;;5055894;28;20020;-79
2022/01/26 03:11:44;;;;;;;18.30;10.75;;;;;;;;;;5056240;28;20507;-82
2022/01/26 03:14:56;;;;;;;21.83;9.75;;;;;;;;;;5059449;28;20028;-81
2022/01/26 03:17:07;;;;;;;21.92;10.73;;;;;;;;;;5055019;28;20163;-82
2022/01/26 03:19:46;;;;;;;11.90;5.90;;;;;;;;;;5052927;28;20033;-79
2022/01/26 03:30:01;;;;;;;5.65;3.42;;;;;;;;;;5054375;28;20028;-81
2022/01/26 03:34:57;;;;;;;6.55;3.53;;;;;;;;;;5063325;28;20360;-81
2022/01/26 03:37:29;;;;;;;9.45;5.28;;;;;;;;;;5059487;28;20039;-80
2022/01/26 03:39:55;;;;;;;7.85;3.70;;;;;;;;;;5056388;28;20531;-79
2022/01/26 03:42:20;;;;;;;6.40;3.83;;;;;;;;;;5055262;28;20028;-79
2022/01/26 03:44:47;;;;;;;8.88;4.82;;;;;;;;;;5063296;28;20020;-79
2022/01/26 03:47:12;;;;;;;8.63;4.05;;;;;;;;;;5056873;28;20474;-81
2022/01/26 03:49:38;;;;;;;12.43;5.78;;;;;;;;;;5054923;28;20025;-79
2022/01/26 03:52:05;;;;;;;7.40;4.25;;;;;;;;;;5054345;28;20025;-81
2022/01/26 03:54:32;;;;;;;7.40;3.78;;;;;;;;;;5055644;28;20036;-79
2022/01/26 03:56:57;;;;;;;7.97;4.18;;;;;;;;;;5059745;28;20024;-79
2022/01/26 03:59:23;;;;;;;6.45;3.38;;;;;;;;;;5067717;28;20378;-79
2022/01/26 04:01:48;;;;;;;12.30;4.22;;;;;;;;;;5054095;28;20021;-79
2022/01/26 04:04:14;;;;;;;11.80;4.85;;;;;;;;;;5063133;28;20039;-81
2022/01/26 04:06:41;;;;;;;8.50;5.80;;;;;;;;;;5062257;28;20028;-80
2022/01/26 04:09:09;;;;;;;10.02;4.40;;;;;;;;;;5056462;28;20028;-81
2022/01/26 04:11:38;;;;;;;6.75;4.30;;;;;;;;;;5055865;28;20021;-80
2022/01/26 04:14:08;;;;;;;6.25;3.10;;;;;;;;;;5053234;28;20036;-80
2022/01/26 04:16:35;;;;;;;8.68;4.40;;;;;;;;;;5048001;28;20060;-80
2022/01/26 04:19:01;;;;;;;4.15;2.65;;;;;;;;;;5058737;28;20047;-80
2022/01/26 04:23:58;;;;;;;6.38;3.80;;;;;;;;;;5060528;28;20024;-82
2022/01/26 04:26:40;;;;;;;7.28;3.45;;;;;;;;;;5064079;28;20067;-81
2022/01/26 04:29:11;;;;;;;7.18;3.78;;;;;;;;;;5066339;28;20107;-81
2022/01/26 04:31:36;;;;;;;5.32;3.30;;;;;;;;;;5061069;28;20408;-81
2022/01/26 04:34:02;;;;;;;4.18;3.03;;;;;;;;;;5060036;28;20107;-81
2022/01/26 04:36:37;;;;;;;6.45;3.47;;;;;;;;;;5061831;28;20061;-81
2022/01/26 04:39:08;;;;;;;6.97;3.42;;;;;;;;;;5060989;28;20033;-81
2022/01/26 04:41:41;;;;;;;8.07;2.72;;;;;;;;;;5059854;28;20040;-80
2022/01/26 04:44:20;;;;;;;5.93;2.85;;;;;;;;;;5063547;28;20027;-81
2022/01/26 04:46:46;;;;;;;7.22;3.97;;;;;;;;;;5061093;28;20041;-81
2022/01/26 04:49:11;;;;;;;7.55;3.97;;;;;;;;;;5059948;28;20043;-81
2022/01/26 04:51:37;;;;;;;5.65;4.10;;;;;;;;;;5046320;28;20365;-82
2022/01/26 04:54:02;;;;;;;7.28;2.17;;;;;;;;;;5057952;28;20036;-81
2022/01/26 04:56:28;;;;;;;9.02;3.63;;;;;;;;;;5059759;28;20465;-80
2022/01/26 04:58:53;;;;;;;5.38;3.47;;;;;;;;;;5055088;28;20369;-80
2022/01/26 05:01:19;;;;;;;10.25;3.75;;;;;;;;;;5053049;28;20037;-80
2022/01/26 05:03:45;;;;;;;9.18;4.43;;;;;;;;;;5058820;28;20033;-81
2022/01/26 05:06:10;;;;;;;7.63;3.95;;;;;;;;;;5062424;28;20028;-80
2022/01/26 05:08:36;;;;;;;8.05;4.85;;;;;;;;;;5052797;28;20060;-79
2022/01/26 05:11:03;;;;;;;4.28;3.13;;;;;;;;;;5053933;28;20412;-81
2022/01/26 05:13:28;;;;;;;2.97;1.80;;;;;;;;;;5058692;28;20108;-81
2022/01/26 05:15:54;;;;;;;4.53;3.08;;;;;;;;;;5048039;28;20778;-83
2022/01/26 05:18:19;;;;;;;7.07;4.88;;;;;;;;;;5051371;28;20053;-79
2022/01/26 05:20:45;;;;;;;14.45;7.53;;;;;;;;;;5048088;28;20036;-81
2022/01/26 05:23:10;;;;;;;7.65;4.55;;;;;;;;;;5052426;28;20033;-81
2022/01/26 05:25:36;;;;;;;9.77;5.43;;;;;;;;;;5047712;28;20025;-80
2022/01/26 05:28:02;;;;;;;12.40;6.10;;;;;;;;;;5052914;28;20036;-81
2022/01/26 05:30:27;;;;;;;8.15;4.57;;;;;;;;;;5055114;28;20097;-81
2022/01/26 05:32:53;;;;;;;12.48;6.35;;;;;;;;;;5046534;28;20060;-81
2022/01/26 05:35:18;;;;;;;7.32;3.88;;;;;;;;;;5050498;28;20412;-80
2022/01/26 05:37:44;;;;;;;10.13;6.45;;;;;;;;;;5053147;28;20032;-81
2022/01/26 05:40:11;;;;;;;11.25;5.10;;;;;;;;;;5050147;28;20040;-81
2022/01/26 05:42:37;;;;;;;8.95;4.53;;;;;;;;;;5048060;28;20024;-79
2022/01/26 05:45:06;;;;;;;6.75;3.72;;;;;;;;;;5048133;28;20037;-79
2022/01/26 05:47:33;;;;;;;7.97;3.90;;;;;;;;;;5053630;28;20024;-80
2022/01/26 05:49:59;;;;;;;6.85;4.22;;;;;;;;;;5054202;28;20029;-79
2022/01/26 05:52:25;;;;;;;5.57;4.20;;;;;;;;;;5049420;28;20466;-79
2022/01/26 05:54:50;;;;;;;11.10;5.93;;;;;;;;;;5061106;28;20037;-78
2022/01/26 05:57:16;;;;;;;12.25;5.35;;;;;;;;;;5049876;28;20556;-79
2022/01/26 05:59:41;;;;;;;10.10;5.82;;;;;;;;;;5051595;28;20082;-81
2022/01/26 06:02:07;;;;;;;8.30;4.85;;;;;;;;;;5055382;28;20478;-78
2022/01/26 06:04:32;;;;;;;11.15;5.85;;;;;;;;;;5054189;28;20040;-81
2022/01/26 06:06:58;;;;;;;9.55;5.97;;;;;;;;;;5056829;28;20029;-79
2022/01/26 06:09:24;;;;;;;8.30;4.10;;;;;;;;;;5057796;28;20033;-79
2022/01/26 06:11:49;;;;;;;11.80;6.88;;;;;;;;;;5057040;28;20941;-79
2022/01/26 06:14:15;;;;;;;12.50;7.10;;;;;;;;;;5052401;28;20082;-80
2022/01/26 06:16:40;;;;;;;15.43;8.25;;;;;;;;;;5050867;28;20079;-80
2022/01/26 06:19:06;;;;;;;9.40;4.20;;;;;;;;;;5054124;28;20039;-80
2022/01/26 06:21:31;;;;;;;15.75;8.77;;;;;;;;;;5046139;28;20079;-78
2022/01/26 06:23:58;;;;;;;12.57;6.80;;;;;;;;;;5048284;28;20052;-79
2022/01/26 06:26:24;;;;;;;14.25;6.28;;;;;;;;;;5049784;28;20031;-78
2022/01/26 06:28:50;;;;;;;13.15;5.82;;;;;;;;;;5054471;28;20940;-79
2022/01/26 06:31:17;;;;;;;14.82;9.52;;;;;;;;;;5049479;28;20504;-77
2022/01/26 06:33:45;;;;;;;16.88;9.48;;;;;;;;;;5048703;28;20028;-79
2022/01/26 06:36:13;;;;;;;9.98;6.25;;;;;;;;;;5049533;28;20139;-78
2022/01/26 06:38:40;;;;;;;14.68;7.40;;;;;;;;;;5057776;28;20103;-79
2022/01/26 06:41:06;;;;;;;14.15;5.70;;;;;;;;;;5051717;28;20442;-80
2022/01/26 06:43:32;;;;;;;14.93;7.05;;;;;;;;;;5048333;28;20547;-77
2022/01/26 06:46:04;;;;;;;10.88;6.60;;;;;;;;;;5053268;28;20032;-79
2022/01/26 06:51:07;;;;;;;12.98;7.05;;;;;;;;;;5046991;28;20032;-81
2022/01/26 06:53:33;;;;;;;16.40;7.95;;;;;;;;;;5054770;28;20032;-80
2022/01/26 06:55:58;;;;;;;13.55;6.95;;;;;;;;;;5051594;28;20032;-80
2022/01/26 06:58:24;;;;;;;17.35;9.60;;;;;;;;;;5059990;28;20028;-81
2022/01/26 07:00:50;;;;;;;14.88;8.05;;;;;;;;;;5058618;28;20029;-79
2022/01/26 07:03:16;;;;;;;15.73;8.40;;;;;;;;;;5050924;28;20029;-81
2022/01/26 07:05:42;;;;;;;14.65;8.20;;;;;;;;;;5054963;28;20426;-81
2022/01/26 07:08:08;;;;;;;12.88;8.00;;;;;;;;;;5056315;28;20035;-79
2022/01/26 07:10:33;;;;;;;14.18;8.23;;;;;;;;;;5050491;28;20021;-79
2022/01/26 07:13:01;;;;;;;12.57;6.90;;;;;;;;;;5058082;28;20040;-80
2022/01/26 07:23:42;;;;;;;22.85;9.90;;;;;;;;;;5047943;28;20071;-78
2022/01/26 07:26:08;;;;;;;15.52;7.03;;;;;;;;;;5046918;28;20057;-78
2022/01/26 07:28:37;;;;;;;13.95;6.85;;;;;;;;;;5050042;28;20033;-79
2022/01/26 07:31:04;;;;;;;16.83;8.40;;;;;;;;;;5050978;28;20473;-79
2022/01/26 07:33:30;;;;;;;20.15;10.27;;;;;;;;;;5045902;28;20722;-80
2022/01/26 07:35:55;;;;;;;20.25;9.40;;;;;;;;;;5047058;28;20033;-79
2022/01/26 07:38:21;;;;;;;21.70;10.48;;;;;;;;;;5043059;28;20473;-79
2022/01/26 07:40:46;;;;;;;17.58;8.38;;;;;;;;;;5044074;28;20456;-81
2022/01/26 07:43:11;;;;;;;9.95;6.30;;;;;;;;;;5049796;28;20075;-79
2022/01/26 07:45:37;;;;;;;15.98;8.05;;;;;;;;;;5042311;28;20469;-79
2022/01/26 07:48:03;;;;;;;17.48;9.38;;;;;;;;;;5046369;28;20155;-77
2022/01/26 07:50:29;;;;;;;9.88;6.10;;;;;;;;;;5046405;28;20026;-78
2022/01/26 07:52:54;;;;;;;14.85;8.65;;;;;;;;;;5047255;28;20084;-78
2022/01/26 07:55:22;;;;;;;13.43;7.72;;;;;;;;;;5050609;28;20076;-78
2022/01/26 07:57:50;;;;;;;17.17;9.90;;;;;;;;;;5047321;28;20026;-79
2022/01/26 08:00:17;;;;;;;8.45;5.50;;;;;;;;;;5051978;28;20427;-79
2022/01/26 08:02:43;;;;;;;11.45;8.00;;;;;;;;;;5048093;28;20491;-78
2022/01/26 08:05:10;;;;;;;13.10;6.88;;;;;;;;;;5046325;28;20079;-78
2022/01/26 08:07:36;;;;;;;14.00;7.10;;;;;;;;;;5054683;28;20107;-79
2022/01/26 08:10:14;;;;;;;16.60;8.00;;;;;;;;;;5050120;28;20107;-81
2022/01/26 08:12:40;;;;;;;13.20;8.27;;;;;;;;;;5048795;28;20445;-78
2022/01/26 08:15:07;;;;;;;12.57;7.47;;;;;;;;;;5051292;28;20115;-78
2022/01/26 08:17:34;;;;;;;15.65;9.32;;;;;;;;;;5050081;28;20053;-78
2022/01/26 08:19:59;;;;;;;13.38;7.47;;;;;;;;;;5054232;28;20044;-78
2022/01/26 08:22:27;;;;;;;14.90;8.77;;;;;;;;;;5044492;28;20464;-78
2022/01/26 08:24:52;;;;;;;16.90;7.75;;;;;;;;;;5050690;28;20606;-78
2022/01/26 08:27:20;;;;;;;8.70;5.63;;;;;;;;;;5053891;28;20032;-77
2022/01/26 08:29:53;;;;;;;9.02;5.63;;;;;;;;;;5049147;28;20021;-78
2022/01/26 08:32:19;;;;;;;14.05;7.72;;;;;;;;;;5048267;28;20041;-80
2022/01/26 08:34:45;;;;;;;14.45;7.30;;;;;;;;;;5047072;28;20041;-78
2022/01/26 08:37:10;;;;;;;12.30;7.30;;;;;;;;;;5049594;28;20025;-78
2022/01/26 08:39:36;;;;;;;9.52;5.88;;;;;;;;;;5051454;28;20025;-78
2022/01/26 08:42:05;;;;;;;10.18;5.90;;;;;;;;;;5047702;28;20037;-78
2022/01/26 08:44:31;;;;;;;13.63;8.67;;;;;;;;;;5047544;28;20477;-78
2022/01/26 08:46:56;;;;;;;14.20;7.80;;;;;;;;;;5047485;28;20029;-81
2022/01/26 08:49:22;;;;;;;11.95;6.72;;;;;;;;;;5045011;28;20397;-78
2022/01/26 08:51:50;;;;;;;7.68;4.78;;;;;;;;;;5047541;28;20028;-78
2022/01/26 08:54:16;;;;;;;8.65;5.70;;;;;;;;;;5051226;28;20029;-79
2022/01/26 08:56:42;;;;;;;9.63;5.82;;;;;;;;;;5047894;28;20020;-78
2022/01/26 08:59:08;;;;;;;9.93;6.22;;;;;;;;;;5051071;28;20040;-78
2022/01/26 09:01:33;;;;;;;9.45;5.45;;;;;;;;;;5048894;28;20091;-80
2022/01/26 09:03:59;;;;;;;7.50;4.97;;;;;;;;;;5050274;28;20029;-80
2022/01/26 09:06:24;;;;;;;9.05;5.50;;;;;;;;;;5057409;28;20029;-80
2022/01/26 09:08:59;;;;;;;9.07;5.40;;;;;;;;;;5052264;28;20078;-79
2022/01/26 09:11:24;;;;;;;8.05;4.78;;;;;;;;;;5048245;28;20067;-80
2022/01/26 09:13:56;;;;;;;9.27;4.97;;;;;;;;;;5046981;28;20142;-79
2022/01/26 09:16:24;;;;;;;8.02;4.88;;;;;;;;;;5063673;28;20094;-78
2022/01/26 09:18:53;;;;;;;5.93;3.60;;;;;;;;;;5046345;28;20033;-79
2022/01/26 09:21:19;;;;;;;8.88;5.25;;;;;;;;;;5049296;28;20039;-78
2022/01/26 09:23:44;;;;;;;12.00;5.28;;;;;;;;;;5055750;28;20054;-79
2022/01/26 09:26:10;;;;;;;9.30;5.28;;;;;;;;;;5054794;28;20055;-79
2022/01/26 09:28:39;;;;;;;6.30;3.92;;;;;;;;;;5046736;28;20492;-79
2022/01/26 09:31:05;;;;;;;5.70;4.07;;;;;;;;;;5054508;28;20377;-79
2022/01/26 09:33:30;;;;;;;10.70;6.28;;;;;;;;;;5043644;28;20039;-79
2022/01/26 09:35:56;;;;;;;6.55;4.05;;;;;;;;;;5047479;28;20035;-79
2022/01/26 09:38:21;;;;;;;8.95;5.00;;;;;;;;;;5056511;28;20029;-79
2022/01/26 09:40:48;;;;;;;9.98;6.18;;;;;;;;;;5052418;28;20029;-79
2022/01/26 09:43:14;;;;;;;5.57;3.80;;;;;;;;;;5046577;28;21062;-79
2022/01/26 09:45:42;;;;;;;8.48;5.93;;;;;;;;;;5046994;28;20060;-78
2022/01/26 09:48:08;;;;;;;7.72;4.70;;;;;;;;;;5048206;28;20766;-78
2022/01/26 09:50:34;;;;;;;7.97;5.25;;;;;;;;;;5048711;28;20405;-77
2022/01/26 09:53:00;;;;;;;6.75;4.55;;;;;;;;;;5046167;28;20059;-78
2022/01/26 09:55:26;;;;;;;5.70;3.97;;;;;;;;;;5048692;28;20060;-77
2022/01/26 09:57:58;;;;;;;8.13;6.32;;;;;;;;;;5049802;28;20695;-78
2022/01/26 10:00:27;;;;;;;7.13;4.28;;;;;;;;;;5048389;28;20021;-78
2022/01/26 10:03:04;;;;;;;7.78;5.40;;;;;;;;;;5044102;28;20083;-77
2022/01/26 10:05:48;;;;;;;8.43;4.53;;;;;;;;;;5055722;28;20038;-78
2022/01/26 10:08:50;;;;;;;21.45;12.07;;;;;;;;;;5045082;28;20044;-80
2022/01/26 10:19:02;;;;;;;8.10;4.75;;;;;;;;;;5045602;28;20074;-77
2022/01/26 10:21:28;;;;;;;8.25;3.38;;;;;;;;;;5049546;28;20425;-79
2022/01/26 10:23:56;;;;;;;8.00;4.05;;;;;;;;;;5048482;28;20135;-79
2022/01/26 10:26:22;;;;;;;7.90;4.03;;;;;;;;;;5047003;28;20033;-78
2022/01/26 10:28:58;;;;;;;8.25;4.60;;;;;;;;;;5050140;28;20035;-77
2022/01/26 10:31:26;;;;;;;7.72;4.15;;;;;;;;;;5050114;28;20476;-79
2022/01/26 10:34:08;;;;;;;7.75;4.93;;;;;;;;;;5046725;28;20482;-80
2022/01/26 10:36:50;;;;;;;6.82;4.30;;;;;;;;;;5051521;28;20021;-78
2022/01/26 10:41:54;;;;;;;6.68;4.40;;;;;;;;;;5046728;28;20496;-77
2022/01/26 10:44:38;;;;;;;9.70;5.72;;;;;;;;;;5048106;28;20024;-78
2022/01/26 10:47:06;;;;;;;6.50;4.35;;;;;;;;;;5044359;28;20024;-79
2022/01/26 10:52:32;;;;;;;8.27;5.50;;;;;;;;;;5047636;28;20028;-77
2022/01/26 10:54:57;;;;;;;6.70;4.47;;;;;;;;;;5047078;28;20028;-76
2022/01/26 10:57:24;;;;;;;7.57;5.72;;;;;;;;;;5045826;28;20086;-76
2022/01/26 10:59:50;;;;;;;5.18;4.05;;;;;;;;;;5048983;28;20035;-75
2022/01/26 11:02:33;;;;;;;5.57;3.35;;;;;;;;;;5047726;28;20025;-78
2022/01/26 11:04:58;;;;;;;9.55;6.22;;;;;;;;;;5049727;28;20459;-78
2022/01/26 11:07:40;;;;;;;9.80;7.82;;;;;;;;;;5046851;28;20098;-79
2022/01/26 11:10:07;;;;;;;11.35;6.45;;;;;;;;;;5043083;28;20029;-80
2022/01/26 11:12:34;;;;;;;9.00;6.68;;;;;;;;;;5044584;28;20037;-78
2022/01/26 11:15:08;;;;;;;7.32;5.25;;;;;;;;;;5046840;28;20052;-76
2022/01/26 11:17:37;;;;;;;11.38;8.75;;;;;;;;;;5039969;28;20044;-78
2022/01/26 11:20:16;;;;;;;8.65;5.35;;;;;;;;;;5041665;28;20235;-78
2022/01/26 11:22:53;;;;;;;7.20;5.05;;;;;;;;;;5048091;28;20025;-77
2022/01/26 11:25:21;;;;;;;8.43;5.03;;;;;;;;;;5046403;28;20099;-77
2022/01/26 11:27:47;;;;;;;6.85;4.80;;;;;;;;;;5052866;28;20071;-77
2022/01/26 11:30:33;;;;;;;8.65;5.57;;;;;;;;;;5046661;28;20028;-77
2022/01/26 11:33:01;;;;;;;8.75;5.13;;;;;;;;;;5039313;28;20385;-78
2022/01/26 11:35:35;;;;;;;11.68;6.50;;;;;;;;;;5045725;28;20423;-77
2022/01/26 11:39:13;;;;;;;15.73;8.30;;;;;;;;;;5046407;28;20047;-77
2022/01/26 11:46:30;;;;;;;7.63;3.78;;;;;;;;;;5054021;28;20036;-80
2022/01/26 11:49:05;;;;;;;9.55;4.72;;;;;;;;;;5051083;28;20020;-79
2022/01/26 11:51:40;;;;;;;7.97;5.85;;;;;;;;;;5051162;28;20048;-79
2022/01/26 11:54:15;;;;;;;8.98;5.63;;;;;;;;;;5054738;28;20032;-79
2022/01/26 11:57:02;;;;;;;6.63;4.47;;;;;;;;;;5049366;28;20021;-79
2022/01/26 11:59:31;;;;;;;8.90;5.82;;;;;;;;;;5043937;28;20040;-77
2022/01/26 12:02:18;;;;;;;22.00;13.25;;;;;;;;;;5046954;28;20020;-79
2022/01/26 12:04:44;;;;;;;9.80;6.80;;;;;;;;;;5046578;28;20024;-78
2022/01/26 12:07:22;;;;;;;10.45;6.53;;;;;;;;;;5048934;28;20651;-78
2022/01/26 12:09:48;;;;;;;11.38;6.53;;;;;;;;;;5045449;28;20028;-77
2022/01/26 12:12:21;;;;;;;8.68;5.63;;;;;;;;;;5047754;28;20025;-78
2022/01/26 12:15:10;;;;;;;10.13;6.00;;;;;;;;;;5050222;28;20024;-77
2022/01/26 12:17:46;;;;;;;12.98;8.15;;;;;;;;;;5047263;28;20432;-79
2022/01/26 12:34:38;;;;;;;8.77;6.00;;;;;;;;;;5044279;28;20551;-80
2022/01/26 12:37:17;;;;;;;7.38;5.25;;;;;;;;;;5048218;28;20045;-78
2022/01/26 12:45:19;;;;;;;10.82;6.97;;;;;;;;;;5049154;28;20040;-79
2022/01/26 12:47:45;;;;;;;9.02;6.00;;;;;;;;;;5050682;28;20456;-77
2022/01/26 12:50:12;;;;;;;8.13;5.82;;;;;;;;;;5056284;28;20024;-76
2022/01/26 12:52:38;;;;;;;10.23;5.97;;;;;;;;;;5042139;28;20029;-77
2022/01/26 12:55:04;;;;;;;9.55;5.93;;;;;;;;;;5047845;28;20041;-77
2022/01/26 12:57:30;;;;;;;9.57;5.47;;;;;;;;;;5047908;28;20412;-80
2022/01/26 13:00:05;;;;;;;10.63;6.95;;;;;;;;;;5045398;28;20108;-77
2022/01/26 13:02:31;;;;;;;17.73;9.25;;;;;;;;;;5048884;28;20045;-78
2022/01/26 13:05:01;;;;;;;18.33;8.65;;;;;;;;;;5047053;28;20131;-77
2022/01/26 13:07:26;;;;;;;30.83;13.82;;;;;;;;;;5044234;28;20029;-79
2022/01/26 13:09:52;;;;;;;21.90;9.38;;;;;;;;;;5048484;28;20078;-76
2022/01/26 13:12:31;;;;;;;18.50;8.23;;;;;;;;;;5050760;28;20025;-78
2022/01/26 13:15:08;;;;;;;21.70;11.57;;;;;;;;;;5042987;28;20484;-76
2022/01/26 13:17:40;;;;;;;15.65;6.85;;;;;;;;;;5047041;28;20283;-81
2022/01/26 13:20:27;;;;;;;13.98;8.07;;;;;;;;;;5049019;28;20035;-78
2022/01/26 13:50:12;;;;;;;4.60;3.33;;;;;;;;;;5050986;28;20028;-78
2022/01/26 13:52:54;;;;;;;6.10;4.18;;;;;;;;;;5050499;28;20142;-78
2022/01/26 13:56:13;;;;;;;4.65;3.13;;;;;;;;;;5047263;28;20036;-78
2022/01/26 14:00:52;;;;;;;6.18;3.97;;;;;;;;;;5048399;28;20388;-79
2022/01/26 14:03:19;;;;;;;6.43;3.80;;;;;;;;;;5046853;28;20473;-78
2022/01/26 14:05:44;;;;;;;7.07;4.40;;;;;;;;;;5050949;28;20030;-76
2022/01/26 14:08:09;;;;;;;7.15;4.18;;;;;;;;;;5050523;28;20127;-78
2022/01/26 14:10:36;;;;;;;10.70;6.78;;;;;;;;;;5050266;28;20032;-78
2022/01/26 14:13:02;;;;;;;6.32;4.30;;;;;;;;;;5048746;28;20106;-79
2022/01/26 14:15:39;;;;;;;6.57;4.22;;;;;;;;;;5046458;28;20382;-78
2022/01/26 14:18:34;;;;;;;7.57;4.10;;;;;;;;;;5045920;28;20041;-78
2022/01/26 14:20:57;;;;;;;6.20;3.97;;;;;;;;;;5049874;28;21744;-80
2022/01/26 14:23:44;;;;;;;6.13;4.47;;;;;;;;;;5051157;28;20493;-77
2022/01/26 14:26:12;;;;;;;10.90;5.63;;;;;;;;;;5046894;28;20118;-80
2022/01/26 14:28:38;;;;;;;10.70;6.07;;;;;;;;;;5044347;28;20401;-78
2022/01/26 14:31:34;;;;;;;5.95;3.95;;;;;;;;;;5047231;28;20024;-79
2022/01/26 14:34:09;;;;;;;6.97;5.55;;;;;;;;;;5048349;28;20033;-77
2022/01/26 14:40:36;;;;;;;8.05;4.78;;;;;;;;;;5024377;28;20504;-77
2022/01/26 14:56:17;;;;;;;7.88;5.45;;;;;;;;;;5049761;28;20063;-78
2022/01/26 15:31:41;;;;;;;7.78;4.88;;;;;;;;;;5050389;28;20059;-77
2022/01/26 15:34:02;;;;;;;6.63;4.53;;;;;;;;;;5052883;28;20029;-77
2022/01/26 15:42:28;;;;;;;18.63;8.50;;;;;;;;;;5048461;28;20036;-78
2022/01/26 15:45:02;;;;;;;9.40;6.30;;;;;;;;;;5048659;28;20041;-78
2022/01/26 15:57:19;;;;;;;17.45;10.38;;;;;;;;;;5050921;28;20484;-79
2022/01/26 15:58:30;;;;;;;16.27;10.55;;;;;;;;;;5048935;28;20103;-80
2022/01/26 16:06:59;;;;;;;10.45;5.88;;;;;;;;;;5046155;28;20090;-78
2022/01/26 16:39:21;;;;;;;34.58;17.02;;;;;;;;;;5049884;28;20075;-79
2022/01/26 18:16:52;;;;;;;17.92;9.38;;;;;;;;;;5050006;28;20044;-80
2022/01/26 18:32:53;;;;;;;17.48;8.48;;;;;;;;;;5047783;28;20575;-78
2022/01/26 18:51:36;;;;;;;18.95;10.23;;;;;;;;;;5038886;28;20071;-77
2022/01/26 18:54:02;;;;;;;19.42;10.73;;;;;;;;;;5052043;28;20503;-78
2022/01/26 18:56:28;;;;;;;16.38;10.38;;;;;;;;;;5041085;28;20549;-78
2022/01/26 18:58:53;;;;;;;11.85;6.68;;;;;;;;;;5041971;28;20108;-78
2022/01/26 19:01:19;;;;;;;17.48;9.40;;;;;;;;;;5036036;28;20025;-78
2022/01/26 19:03:45;;;;;;;14.98;7.97;;;;;;;;;;5048503;28;20111;-79
2022/01/26 19:06:10;;;;;;;13.68;8.85;;;;;;;;;;5044705;28;20082;-79
2022/01/26 19:08:38;;;;;;;16.70;9.10;;;;;;;;;;5040856;28;20036;-80
2022/01/26 19:11:03;;;;;;;12.32;7.05;;;;;;;;;;5042388;28;20025;-79
2022/01/26 19:13:31;;;;;;;11.73;7.13;;;;;;;;;;5042208;28;20037;-78
2022/01/26 19:16:04;;;;;;;19.13;11.85;;;;;;;;;;5040633;28;20033;-79
2022/01/26 19:18:50;;;;;;;15.40;9.15;;;;;;;;;;5034736;28;20045;-79
2022/01/26 19:21:49;;;;;;;14.30;8.65;;;;;;;;;;5035477;28;20037;-79
2022/01/26 19:26:42;;;;;;;13.02;7.22;;;;;;;;;;5040759;28;20025;-80
2022/01/26 19:29:31;;;;;;;16.15;6.63;;;;;;;;;;5041457;28;20104;-80
2022/01/26 19:53:07;;;;;;;20.85;8.88;;;;;;;;;;5041408;28;20037;-81
2022/01/26 19:55:33;;;;;;;12.68;8.85;;;;;;;;;;5045120;28;20024;-79
2022/01/26 19:58:01;;;;;;;14.55;7.00;;;;;;;;;;5042566;28;20079;-80
2022/01/26 20:00:26;;;;;;;11.73;7.15;;;;;;;;;;5043858;28;20485;-78
2022/01/26 20:02:53;;;;;;;14.32;7.95;;;;;;;;;;5055797;28;20020;-80
2022/01/26 20:05:18;;;;;;;11.02;6.18;;;;;;;;;;5053437;28;20120;-79
2022/01/26 20:07:50;;;;;;;15.15;8.35;;;;;;;;;;5045265;28;20128;-81
2022/01/26 20:10:24;;;;;;;20.23;11.00;;;;;;;;;;5044126;28;20492;-77
2022/01/26 20:12:59;;;;;;;17.85;8.57;;;;;;;;;;5050234;28;20136;-78
2022/01/26 20:15:25;;;;;;;19.45;11.00;;;;;;;;;;5046204;28;20124;-81
2022/01/26 20:17:53;;;;;;;17.52;9.30;;;;;;;;;;5050629;28;20129;-80
2022/01/26 20:20:21;;;;;;;18.20;9.57;;;;;;;;;;5044603;28;20113;-78
2022/01/26 20:22:47;;;;;;;17.45;9.18;;;;;;;;;;5049329;28;20029;-80
2022/01/26 20:25:15;;;;;;;16.67;8.43;;;;;;;;;;5051206;28;20021;-79
2022/01/26 20:27:42;;;;;;;17.58;11.07;;;;;;;;;;5048557;28;20655;-80
2022/01/26 20:30:15;;;;;;;22.58;10.00;;;;;;;;;;5043719;28;20049;-79
2022/01/26 20:32:42;;;;;;;18.52;8.82;;;;;;;;;;5045357;28;20123;-80
2022/01/26 20:35:09;;;;;;;17.08;10.32;;;;;;;;;;5044940;28;20020;-79
2022/01/26 20:37:35;;;;;;;12.02;7.47;;;;;;;;;;5045915;28;20124;-79
2022/01/26 20:40:03;;;;;;;12.50;6.70;;;;;;;;;;5046028;28;20035;-81
2022/01/26 20:42:29;;;;;;;11.73;6.03;;;;;;;;;;5049959;28;20036;-80
2022/01/26 20:44:57;;;;;;;10.23;6.35;;;;;;;;;;5047236;28;20021;-78
2022/01/26 20:47:23;;;;;;;11.93;6.75;;;;;;;;;;5048873;28;20041;-81
2022/01/26 20:53:12;;;;;;;12.48;6.40;;;;;;;;;;5040231;28;20149;-81
2022/01/26 20:55:38;;;;;;;14.48;6.60;;;;;;;;;;5046072;28;20049;-80
2022/01/26 20:58:04;;;;;;;18.35;8.93;;;;;;;;;;5044089;28;20484;-80
2022/01/26 21:00:29;;;;;;;17.42;8.70;;;;;;;;;;5047179;28;20108;-79
2022/01/26 21:02:55;;;;;;;11.48;6.65;;;;;;;;;;5046868;28;20033;-80
2022/01/26 21:05:24;;;;;;;11.70;5.68;;;;;;;;;;5049514;28;20111;-80
2022/01/26 21:07:50;;;;;;;15.43;7.90;;;;;;;;;;5046453;28;20040;-79
2022/01/26 21:10:18;;;;;;;13.80;7.20;;;;;;;;;;5044645;28;20480;-77
2022/01/26 21:12:44;;;;;;;14.48;6.35;;;;;;;;;;5047068;28;20460;-79
2022/01/26 21:15:11;;;;;;;15.30;7.68;;;;;;;;;;5051256;28;20027;-79
2022/01/26 21:17:37;;;;;;;22.30;9.93;;;;;;;;;;5049348;28;20041;-79
2022/01/26 21:20:05;;;;;;;14.45;7.10;;;;;;;;;;5046152;28;20034;-79
2022/01/26 21:22:30;;;;;;;11.27;6.00;;;;;;;;;;5047054;28;20374;-78
2022/01/26 21:24:56;;;;;;;11.63;6.13;;;;;;;;;;5052259;28;20090;-79
2022/01/26 21:27:21;;;;;;;12.57;7.68;;;;;;;;;;5057145;28;20028;-80
2022/01/26 21:29:47;;;;;;;12.85;6.07;;;;;;;;;;5055877;28;20043;-79
2022/01/26 21:32:12;;;;;;;10.93;5.50;;;;;;;;;;5048879;28;20025;-79
2022/01/26 21:34:38;;;;;;;11.05;6.03;;;;;;;;;;5053032;28;20388;-80